Time;durP1;ratioP1;P1;durP2;ratioP2;P2;SDS_P1;SDS_P2;PMS_P1;PMS_P2;Temp;Humidity;BMP_temperature;BMP_pressure;BME280_temperature;BME280_humidity;BME280_pressure;Samples;Min_cycle;Max_cycle;Signal;HPM_P1;HPM_P2
2023/04/08 00:02:28;;;;;;;28.60;12.50;;;;;;;9.18;65.22;99195.83;68313;1282;1015729;-60
2023/04/08 00:05:31;;;;;;;31.90;14.10;;;;;;;9.15;64.99;99194.97;68319;1282;1015994;-60
2023/04/08 00:08:33;;;;;;;33.40;15.10;;;;;;;8.96;65.20;99199.35;68296;1282;1015778;-60
2023/04/08 00:11:36;;;;;;;31.10;12.60;;;;;;;8.85;65.11;99196.58;68291;1282;1016237;-60
2023/04/08 00:14:40;;;;;;;31.20;13.80;;;;;;;8.85;65.09;99193.59;68312;1282;1015441;-60
2023/04/08 00:17:42;;;;;;;30.80;13.10;;;;;;;8.72;65.68;99193.00;68302;1282;1015299;-60
2023/04/08 00:20:45;;;;;;;31.60;13.50;;;;;;;8.63;65.73;99188.17;68315;1282;1016012;-60
2023/04/08 00:23:47;;;;;;;31.90;13.70;;;;;;;8.63;65.93;99194.14;68306;1282;1015209;-60
2023/04/08 00:26:50;;;;;;;32.50;13.60;;;;;;;8.58;66.12;99197.30;68300;1282;1015519;-60
2023/04/08 00:29:53;;;;;;;31.10;13.20;;;;;;;8.64;66.06;99196.83;68300;1282;1015657;-60
2023/04/08 00:32:55;;;;;;;32.10;13.70;;;;;;;8.66;65.84;99200.61;68317;1282;1015545;-60
2023/04/08 00:35:57;;;;;;;35.80;15.00;;;;;;;8.56;66.31;99202.66;68285;1282;1016074;-60
2023/04/08 00:39:00;;;;;;;34.00;14.60;;;;;;;8.56;66.91;99200.39;68309;1259;1015843;-60
2023/04/08 00:42:02;;;;;;;32.00;12.90;;;;;;;8.60;66.82;99196.88;68305;1282;1015212;-60
2023/04/08 00:45:04;;;;;;;36.10;14.90;;;;;;;8.79;66.30;99195.64;68306;1282;1015139;-60
2023/04/08 00:48:07;;;;;;;34.20;15.10;;;;;;;8.90;65.88;99198.63;68305;1282;1015743;-60
2023/04/08 00:51:10;;;;;;;35.60;14.60;;;;;;;8.76;66.22;99198.57;68317;1282;1015863;-60
2023/04/08 00:54:12;;;;;;;37.10;15.30;;;;;;;8.79;66.58;99199.96;68310;1282;1015625;-60
2023/04/08 00:57:14;;;;;;;33.80;14.60;;;;;;;8.79;66.57;99198.43;68284;1282;1015689;-60
2023/04/08 01:00:17;;;;;;;37.60;15.40;;;;;;;8.73;66.51;99198.17;68318;1282;1015617;-60
2023/04/08 01:03:19;;;;;;;34.50;14.30;;;;;;;8.56;66.71;99204.74;68293;1282;1016274;-60
2023/04/08 01:06:21;;;;;;;34.70;14.90;;;;;;;8.60;66.75;99200.33;68316;1282;1015917;-60
2023/04/08 01:09:24;;;;;;;31.30;13.60;;;;;;;8.60;66.51;99195.98;68302;1282;1015913;-60
2023/04/08 01:12:27;;;;;;;34.20;15.20;;;;;;;8.42;66.66;99197.85;68291;1282;1015922;-60
2023/04/08 01:15:29;;;;;;;34.20;14.90;;;;;;;8.28;66.90;99198.48;68315;1282;1015566;-60
2023/04/08 01:18:31;;;;;;;32.10;13.70;;;;;;;8.07;67.28;99204.14;68313;1282;1015368;-60
2023/04/08 01:21:35;;;;;;;33.60;14.40;;;;;;;7.94;67.47;99208.52;65739;1282;6368378;-60
2023/04/08 01:24:37;;;;;;;36.60;14.90;;;;;;;7.88;67.65;99207.92;68309;1282;1015071;-60
2023/04/08 01:27:40;;;;;;;43.30;17.00;;;;;;;7.94;67.75;99207.66;68307;1282;1015390;-60
2023/04/08 01:30:42;;;;;;;45.60;17.90;;;;;;;8.03;67.38;99211.46;68304;1282;1015218;-60
2023/04/08 01:33:44;;;;;;;43.00;17.50;;;;;;;8.07;67.16;99206.22;68292;1282;1014833;-60
2023/04/08 01:36:47;;;;;;;36.70;15.10;;;;;;;8.17;66.79;99211.34;68309;1282;1015577;-60
2023/04/08 01:39:49;;;;;;;35.10;14.90;;;;;;;8.23;66.97;99214.23;68301;1282;1015427;-60
2023/04/08 01:43:00;;;;;;;37.00;15.60;;;;;;;8.26;66.57;99215.99;68314;1282;1016468;-60
2023/04/08 01:46:02;;;;;;;40.60;17.40;;;;;;;8.21;66.17;99215.17;68304;1282;1016245;-60
2023/04/08 01:49:05;;;;;;;34.80;14.60;;;;;;;8.00;66.13;99213.48;68296;1282;1015956;-60
2023/04/08 01:52:07;;;;;;;35.30;14.90;;;;;;;7.85;66.51;99210.33;68317;1282;1015554;-60
2023/04/08 01:55:10;;;;;;;35.60;14.70;;;;;;;7.66;66.47;99213.39;68300;1282;1015756;-60
2023/04/08 01:58:12;;;;;;;36.60;15.40;;;;;;;7.44;67.10;99212.09;68305;1282;1015384;-60
2023/04/08 02:01:14;;;;;;;35.50;15.00;;;;;;;7.34;67.38;99213.38;68305;1282;1015626;-60
2023/04/08 02:04:17;;;;;;;34.90;14.20;;;;;;;7.22;67.90;99217.84;68310;1282;1015776;-60
2023/04/08 02:07:19;;;;;;;33.40;13.80;;;;;;;7.21;67.77;99217.88;68301;1282;1014828;-60
2023/04/08 02:10:21;;;;;;;34.00;13.80;;;;;;;7.22;67.44;99218.86;68319;1282;1015467;-60
2023/04/08 02:13:24;;;;;;;38.40;14.30;;;;;;;7.20;67.53;99215.82;68320;1282;1015908;-60
2023/04/08 02:16:26;;;;;;;37.60;14.40;;;;;;;7.18;67.84;99214.36;68304;1282;1016404;-60
2023/04/08 02:19:29;;;;;;;36.70;14.40;;;;;;;6.95;68.60;99218.55;68295;1282;1016193;-60
2023/04/08 02:22:32;;;;;;;36.10;14.30;;;;;;;6.95;68.87;99215.23;68321;1282;1016196;-60
2023/04/08 02:25:34;;;;;;;38.90;15.90;;;;;;;6.87;69.26;99221.81;68336;1282;1015412;-60
2023/04/08 02:28:36;;;;;;;34.90;14.90;;;;;;;6.85;69.25;99224.17;68315;1282;1015950;-60
2023/04/08 02:31:39;;;;;;;33.70;13.80;;;;;;;6.74;69.77;99222.70;68304;1282;1017004;-62
2023/04/08 02:34:41;;;;;;;32.50;13.00;;;;;;;6.71;69.92;99221.23;68307;1282;1016218;-60
2023/04/08 02:37:44;;;;;;;34.40;14.10;;;;;;;6.76;70.89;99223.15;68320;1282;1015320;-60
2023/04/08 02:40:46;;;;;;;31.80;12.50;;;;;;;6.93;70.04;99222.83;68313;1282;1015689;-60
2023/04/08 02:43:50;;;;;;;30.30;12.40;;;;;;;6.99;70.23;99222.25;68313;1282;1015795;-60
2023/04/08 02:46:53;;;;;;;30.40;11.10;;;;;;;7.02;70.26;99225.40;68315;1282;1015716;-60
2023/04/08 02:49:55;;;;;;;27.40;11.30;;;;;;;7.15;70.20;99224.55;68302;1282;1016089;-61
2023/04/08 02:52:57;;;;;;;29.00;11.50;;;;;;;7.38;69.45;99229.52;68301;1282;1015348;-60
2023/04/08 02:56:00;;;;;;;27.40;11.00;;;;;;;7.46;69.34;99223.28;68309;1282;1015675;-60
2023/04/08 02:59:03;;;;;;;26.70;10.10;;;;;;;7.66;68.85;99230.98;68299;1282;1015547;-60
2023/04/08 03:02:05;;;;;;;27.30;10.20;;;;;;;7.77;68.81;99236.61;68306;1282;1015746;-60
2023/04/08 03:05:07;;;;;;;30.00;10.90;;;;;;;8.00;68.45;99236.33;68320;1282;1015263;-60
2023/04/08 03:08:10;;;;;;;29.50;11.30;;;;;;;8.12;68.09;99236.81;68313;1282;1016032;-60
2023/04/08 03:11:12;;;;;;;27.60;10.10;;;;;;;8.26;68.11;99237.94;68321;1282;1015047;-60
2023/04/08 03:14:16;;;;;;;27.80;11.00;;;;;;;8.43;68.00;99237.21;68319;1282;1015599;-61
2023/04/08 03:17:19;;;;;;;27.40;10.40;;;;;;;8.61;67.32;99236.41;68322;1282;1015371;-60
2023/04/08 03:20:21;;;;;;;23.40;8.90;;;;;;;8.67;66.80;99239.08;68303;1282;1015925;-60
2023/04/08 03:23:23;;;;;;;22.30;8.40;;;;;;;8.56;66.73;99235.75;68319;1259;1015237;-60
2023/04/08 03:26:26;;;;;;;22.70;8.10;;;;;;;8.47;66.75;99238.98;68315;1282;1015908;-60
2023/04/08 03:29:28;;;;;;;26.30;9.80;;;;;;;8.53;67.02;99235.55;68340;1282;1016466;-60
2023/04/08 03:32:31;;;;;;;23.80;8.70;;;;;;;8.54;66.86;99240.71;68295;1282;1015900;-60
2023/04/08 03:35:33;;;;;;;22.70;8.10;;;;;;;8.51;67.18;99241.05;68302;1282;1016034;-60
2023/04/08 03:38:35;;;;;;;23.90;8.30;;;;;;;8.64;66.08;99241.67;68327;1282;1016150;-60
2023/04/08 03:41:38;;;;;;;25.10;8.40;;;;;;;8.60;65.34;99242.73;68313;1282;1015316;-60
2023/04/08 03:44:40;;;;;;;27.20;10.00;;;;;;;8.50;65.57;99240.58;68320;1282;1016036;-60
2023/04/08 03:47:43;;;;;;;30.00;10.70;;;;;;;8.42;65.63;99248.39;68310;1282;1015608;-60
2023/04/08 03:50:45;;;;;;;43.90;15.40;;;;;;;8.46;65.67;99257.99;68319;1282;1015960;-60
2023/04/08 03:53:48;;;;;;;25.00;8.90;;;;;;;8.48;65.62;99261.90;68316;1282;1016189;-60
2023/04/08 03:56:50;;;;;;;;;;;;;;;8.36;65.61;99265.20;68320;1282;1015307;-60
2023/04/08 03:59:53;;;;;;;23.70;8.10;;;;;;;8.24;65.93;99267.82;68322;1282;1015314;-60
2023/04/08 04:02:55;;;;;;;23.40;8.50;;;;;;;8.15;66.24;99272.58;68322;1282;1015710;-60
2023/04/08 04:05:58;;;;;;;24.30;8.80;;;;;;;8.08;66.64;99274.44;68324;1282;1015388;-60
2023/04/08 04:09:00;;;;;;;24.90;8.90;;;;;;;8.09;66.70;99278.27;68330;1282;1015513;-60
2023/04/08 04:12:05;;;;;;;23.20;8.70;;;;;;;8.10;66.82;99281.48;68317;1282;1016113;-60
2023/04/08 04:15:07;;;;;;;22.70;7.70;;;;;;;8.11;66.75;99283.23;68314;1282;1015637;-60
2023/04/08 04:18:10;;;;;;;20.70;7.40;;;;;;;8.13;66.81;99287.66;68321;1282;1015574;-60
2023/04/08 04:21:12;;;;;;;22.60;8.40;;;;;;;8.17;66.58;99287.30;68315;1282;1015959;-60
2023/04/08 04:24:15;;;;;;;23.70;8.20;;;;;;;8.18;66.61;99291.29;68304;1282;1015617;-60
2023/04/08 04:27:17;;;;;;;23.10;7.40;;;;;;;8.20;66.44;99291.88;68317;1282;1016084;-60
2023/04/08 04:30:20;;;;;;;22.90;7.30;;;;;;;8.23;66.70;99296.42;68318;1282;1015891;-60
2023/04/08 04:33:23;;;;;;;21.40;7.20;;;;;;;8.17;66.72;99303.30;68319;1282;1015383;-60
2023/04/08 04:36:26;;;;;;;21.50;7.50;;;;;;;8.25;66.49;99306.29;68313;1282;1015688;-60
2023/04/08 04:39:28;;;;;;;24.50;7.80;;;;;;;8.28;66.67;99314.52;68320;1282;1015718;-60
2023/04/08 04:42:31;;;;;;;21.80;7.40;;;;;;;8.39;66.25;99311.94;68311;1282;1015564;-60
2023/04/08 04:45:33;;;;;;;25.80;9.10;;;;;;;8.41;66.61;99315.02;68333;1282;1015906;-60
2023/04/08 04:48:35;;;;;;;23.20;7.90;;;;;;;8.45;66.49;99314.99;68334;1282;1015577;-60
2023/04/08 04:51:38;;;;;;;24.20;8.90;;;;;;;8.46;66.35;99322.29;68332;1282;1015753;-60
2023/04/08 04:54:40;;;;;;;21.90;8.30;;;;;;;8.42;66.61;99322.48;68325;1282;1015477;-60
2023/04/08 04:57:43;;;;;;;25.30;9.50;;;;;;;8.52;66.68;99324.84;68323;1282;1015588;-60
2023/04/08 05:00:45;;;;;;;;;;;;;;;8.61;66.70;99327.89;68332;1282;1015767;-60
2023/04/08 05:03:48;;;;;;;24.40;8.70;;;;;;;8.66;66.69;99330.30;68308;1282;1016316;-60
2023/04/08 05:06:50;;;;;;;41.50;19.00;;;;;;;8.66;66.65;99329.77;68310;1282;1015446;-60
2023/04/08 05:09:52;;;;;;;28.50;11.60;;;;;;;8.61;66.69;99332.25;68319;1282;1015634;-60
2023/04/08 05:12:55;;;;;;;28.00;11.30;;;;;;;8.53;66.83;99338.19;68311;1282;1015478;-60
2023/04/08 05:15:57;;;;;;;24.60;8.40;;;;;;;8.60;66.89;99337.91;68317;1282;1016214;-60
2023/04/08 05:18:59;;;;;;;23.10;8.10;;;;;;;8.73;66.62;99340.66;68325;1282;1016799;-60
2023/04/08 05:22:02;;;;;;;24.90;9.90;;;;;;;8.75;66.51;99348.53;68304;1282;1015844;-60
2023/04/08 05:25:04;;;;;;;23.20;8.80;;;;;;;8.80;66.73;99351.98;68318;1282;1015445;-60
2023/04/08 05:28:07;;;;;;;;;;;;;;;8.94;66.21;99353.28;68338;1282;1015554;-60
2023/04/08 05:31:10;;;;;;;27.70;11.00;;;;;;;9.04;66.14;99356.66;68316;1282;1015204;-60
2023/04/08 05:34:13;;;;;;;40.30;15.40;;;;;;;9.15;65.71;99354.41;68334;1282;1015545;-60
2023/04/08 05:37:15;;;;;;;27.00;10.50;;;;;;;9.17;65.97;99354.30;68314;1282;1014387;-60
2023/04/08 05:40:17;;;;;;;24.90;9.30;;;;;;;9.33;65.74;99355.33;68317;1282;1016413;-60
2023/04/08 05:43:20;;;;;;;26.60;10.40;;;;;;;9.41;65.34;99360.02;68323;1282;1015654;-60
2023/04/08 05:46:22;;;;;;;24.40;9.30;;;;;;;9.43;64.71;99365.85;68321;1282;1015236;-60
2023/04/08 05:49:25;;;;;;;24.70;9.00;;;;;;;9.52;64.67;99364.89;68320;1282;1015872;-60
2023/04/08 05:52:27;;;;;;;27.40;10.10;;;;;;;9.63;64.61;99362.42;68322;1282;1015707;-60
2023/04/08 05:55:29;;;;;;;23.90;9.30;;;;;;;9.80;65.13;99366.52;68312;1282;1015964;-60
2023/04/08 05:58:32;;;;;;;29.30;10.60;;;;;;;10.03;65.03;99365.02;68311;1282;1015534;-60
2023/04/08 06:01:34;;;;;;;28.00;11.40;;;;;;;10.30;64.74;99366.99;68322;1282;1014249;-60
2023/04/08 06:04:37;;;;;;;29.00;12.30;;;;;;;10.44;63.23;99367.52;68319;1282;1015458;-60
2023/04/08 06:07:39;;;;;;;28.40;12.20;;;;;;;10.72;62.66;99373.22;68310;1282;1015879;-61
2023/04/08 06:10:42;;;;;;;29.50;12.60;;;;;;;10.96;62.47;99374.92;68332;1282;1015956;-60
2023/04/08 06:13:44;;;;;;;28.70;12.60;;;;;;;11.04;61.57;99379.21;68303;1282;1016085;-60
2023/04/08 06:16:47;;;;;;;30.60;12.70;;;;;;;11.18;61.69;99378.86;68323;1282;1016164;-60
2023/04/08 06:19:49;;;;;;;;;;;;;;;11.37;61.80;99382.36;68330;1282;1016067;-60
2023/04/08 06:22:52;;;;;;;31.70;13.30;;;;;;;11.70;60.73;99385.77;68328;1282;1015666;-60
2023/04/08 06:25:54;;;;;;;29.80;13.20;;;;;;;11.97;60.99;99383.20;68317;1282;1015431;-60
2023/04/08 06:28:57;;;;;;;34.00;13.80;;;;;;;12.15;60.35;99390.05;68327;1282;1017327;-60
2023/04/08 06:31:59;;;;;;;28.70;12.30;;;;;;;12.28;59.18;99390.87;68300;1282;1015801;-60
2023/04/08 06:35:02;;;;;;;29.40;12.40;;;;;;;12.38;59.77;99397.52;68328;1282;1016430;-60
2023/04/08 06:38:04;;;;;;;30.10;13.00;;;;;;;12.58;59.57;99393.67;68318;1282;1015710;-60
2023/04/08 06:41:06;;;;;;;27.10;11.10;;;;;;;12.70;58.07;99399.10;68306;1282;1015471;-60
2023/04/08 06:44:09;;;;;;;27.10;11.60;;;;;;;12.63;56.90;99401.41;68308;1282;1015611;-60
2023/04/08 06:47:11;;;;;;;27.20;11.20;;;;;;;12.70;58.01;99404.04;68331;1282;1015495;-60
2023/04/08 06:50:14;;;;;;;29.60;11.70;;;;;;;12.80;58.08;99406.37;68314;1282;1015673;-60
2023/04/08 06:53:17;;;;;;;24.80;10.40;;;;;;;12.89;57.15;99406.86;68320;1282;1015714;-60
2023/04/08 06:56:21;;;;;;;24.90;9.90;;;;;;;12.90;58.01;99409.48;68318;1282;1016139;-60
2023/04/08 06:59:23;;;;;;;24.60;9.20;;;;;;;13.15;57.64;99412.48;68315;1259;1015952;-60
2023/04/08 07:02:26;;;;;;;24.40;9.10;;;;;;;13.19;56.05;99413.95;68322;1282;1016076;-60
2023/04/08 07:05:28;;;;;;;25.20;10.50;;;;;;;13.27;56.51;99418.73;68315;1282;1015552;-60
2023/04/08 07:08:31;;;;;;;26.90;10.90;;;;;;;13.20;55.25;99421.86;68312;1282;1015315;-60
2023/04/08 07:11:34;;;;;;;27.80;11.00;;;;;;;13.06;55.29;99423.92;68318;1282;1016090;-60
2023/04/08 07:14:36;;;;;;;25.40;10.50;;;;;;;13.08;55.14;99431.89;68314;1282;1015670;-61
2023/04/08 07:17:39;;;;;;;27.90;11.60;;;;;;;13.06;55.53;99429.55;68314;1282;1015446;-60
2023/04/08 07:20:41;;;;;;;;;;;;;;;13.12;56.33;99432.34;68316;1282;1015405;-60
2023/04/08 07:23:44;;;;;;;26.40;11.00;;;;;;;13.06;54.89;99434.49;68308;1282;1016492;-60
2023/04/08 07:26:46;;;;;;;26.80;10.70;;;;;;;12.97;53.47;99435.90;68320;1282;1015764;-60
2023/04/08 07:29:48;;;;;;;25.60;10.60;;;;;;;13.06;52.25;99433.20;68323;1282;1015288;-60
2023/04/08 07:32:51;;;;;;;25.40;10.70;;;;;;;13.04;53.48;99439.65;68322;1282;1016245;-60
2023/04/08 07:35:53;;;;;;;25.70;10.00;;;;;;;13.09;53.51;99437.46;68310;1282;1015661;-60
2023/04/08 07:38:57;;;;;;;26.90;11.30;;;;;;;12.89;53.38;99439.52;68298;1282;1015835;-60
2023/04/08 07:41:59;;;;;;;26.30;10.70;;;;;;;13.26;54.88;99442.70;68326;1282;1015273;-60
2023/04/08 07:45:02;;;;;;;26.70;11.10;;;;;;;13.88;53.15;99443.71;68328;1282;1015256;-60
2023/04/08 07:48:04;;;;;;;23.40;10.20;;;;;;;14.28;53.23;99443.05;68313;1282;1016123;-60
2023/04/08 07:51:07;;;;;;;26.60;12.30;;;;;;;14.60;52.52;99446.94;68327;1282;1015970;-60
2023/04/08 07:54:11;;;;;;;24.20;10.70;;;;;;;14.84;50.70;99447.09;68328;1282;1015560;-60
2023/04/08 07:57:13;;;;;;;27.90;12.10;;;;;;;14.58;50.30;99447.98;68326;1282;1014466;-60
2023/04/08 08:00:20;;;;;;;27.20;12.10;;;;;;;14.54;52.48;99449.29;68313;1282;1015883;-60
2023/04/08 08:03:22;;;;;;;27.30;12.30;;;;;;;14.64;51.97;99453.19;68321;1282;1016040;-60
2023/04/08 08:06:25;;;;;;;25.80;11.40;;;;;;;14.79;52.74;99449.23;68313;1282;1015622;-60
2023/04/08 08:09:27;;;;;;;28.30;12.20;;;;;;;15.12;49.56;99444.61;68315;1282;1016194;-60
2023/04/08 08:12:29;;;;;;;27.10;11.40;;;;;;;15.57;51.76;99439.19;68320;1282;1015461;-60
2023/04/08 08:15:32;;;;;;;25.80;11.70;;;;;;;15.88;50.24;99436.83;68319;1282;1014434;-60
2023/04/08 08:18:34;;;;;;;26.90;12.80;;;;;;;15.85;50.07;99432.44;68310;1282;1015474;-60
2023/04/08 08:21:36;;;;;;;26.30;11.00;;;;;;;15.86;49.88;99433.73;68317;1282;1016124;-60
2023/04/08 08:24:39;;;;;;;27.80;11.80;;;;;;;16.10;49.55;99426.35;68333;1282;1015490;-60
2023/04/08 08:27:42;;;;;;;25.40;11.80;;;;;;;15.84;49.75;99431.25;68298;1282;1015386;-60
2023/04/08 08:30:44;;;;;;;27.10;11.60;;;;;;;15.64;50.45;99428.66;68307;1282;1015338;-60
2023/04/08 08:33:47;;;;;;;25.30;11.30;;;;;;;15.65;50.26;99436.14;68308;1282;1015442;-60
2023/04/08 08:36:49;;;;;;;26.00;12.10;;;;;;;15.76;50.23;99440.24;68325;1282;1014820;-60
2023/04/08 08:39:52;;;;;;;;;;;;;;;15.97;50.30;99441.40;68325;1282;1015844;-60
2023/04/08 08:42:56;;;;;;;26.80;12.20;;;;;;;16.11;49.69;99444.48;68310;1282;1014646;-60
2023/04/08 08:45:58;;;;;;;26.10;11.70;;;;;;;16.40;50.22;99443.91;68302;1282;1015314;-60
2023/04/08 08:49:00;;;;;;;26.60;11.00;;;;;;;16.76;49.37;99447.20;68306;1282;1016078;-60
2023/04/08 08:52:03;;;;;;;28.40;11.50;;;;;;;16.98;49.04;99447.98;68312;1282;1016020;-60
2023/04/08 08:55:05;;;;;;;27.30;11.70;;;;;;;17.24;49.01;99452.85;68318;1282;1015772;-60
2023/04/08 08:58:08;;;;;;;27.00;12.00;;;;;;;17.33;47.90;99456.09;68314;1282;1015651;-60
2023/04/08 09:01:10;;;;;;;26.60;11.70;;;;;;;17.55;47.99;99451.29;68320;1282;1015346;-60
2023/04/08 09:04:13;;;;;;;26.80;11.30;;;;;;;17.56;46.68;99458.11;68317;1282;1016053;-60
2023/04/08 09:07:15;;;;;;;;;;;;;;;17.21;47.92;99468.62;68334;1282;1015436;-60
2023/04/08 09:10:17;;;;;;;27.60;11.90;;;;;;;17.24;47.01;99466.85;68325;1282;1015990;-60
2023/04/08 09:13:20;;;;;;;25.60;11.50;;;;;;;16.98;47.56;99476.08;68311;1282;1015198;-60
2023/04/08 09:16:22;;;;;;;25.50;11.70;;;;;;;17.02;47.52;99481.98;68308;1282;1015490;-60
2023/04/08 09:19:25;;;;;;;;;;;;;;;17.19;47.56;99481.73;68330;1282;1015363;-60
2023/04/08 09:22:28;;;;;;;26.10;11.90;;;;;;;17.15;47.51;99486.95;68319;1282;1015519;-60
2023/04/08 09:25:31;;;;;;;26.50;11.90;;;;;;;16.85;47.90;99491.00;68308;1282;1015286;-60
2023/04/08 09:28:34;;;;;;;25.90;11.80;;;;;;;17.00;47.94;99496.56;68335;1282;1014870;-60
2023/04/08 09:31:40;;;;;;;27.00;12.40;;;;;;;17.04;47.54;99497.20;68323;1282;1015866;-60
2023/04/08 09:34:42;;;;;;;28.00;12.20;;;;;;;16.89;47.84;99496.22;68319;1282;1015942;-60
2023/04/08 09:37:45;;;;;;;28.30;13.00;;;;;;;17.12;47.84;99499.23;68322;1282;1016785;-60
2023/04/08 09:40:47;;;;;;;29.80;13.10;;;;;;;17.48;47.28;99497.10;68320;1259;1016080;-60
2023/04/08 09:43:50;;;;;;;27.40;12.30;;;;;;;17.60;46.43;99497.91;68324;1282;1015992;-61
2023/04/08 09:46:53;;;;;;;26.50;12.20;;;;;;;17.62;46.82;99500.45;68316;1282;1015222;-61
2023/04/08 09:49:55;;;;;;;35.90;18.80;;;;;;;17.75;46.31;99498.16;68329;1282;1015440;-61
2023/04/08 09:52:57;;;;;;;29.80;15.90;;;;;;;17.41;45.22;99496.77;68309;1282;1015499;-60
2023/04/08 09:56:00;;;;;;;28.20;12.40;;;;;;;16.90;44.81;99496.77;68328;1282;1015588;-61
2023/04/08 09:59:02;;;;;;;28.40;11.80;;;;;;;16.96;47.32;99498.85;68327;1282;1014937;-61
2023/04/08 10:02:05;;;;;;;;;;;;;;;17.26;45.82;99489.95;68317;1282;1016539;-61
2023/04/08 10:05:07;;;;;;;35.10;16.80;;;;;;;17.54;46.60;99483.73;68323;1282;1015459;-61
2023/04/08 10:08:10;;;;;;;28.70;13.50;;;;;;;17.85;44.67;99482.54;68306;1282;1015459;-61
2023/04/08 10:11:12;;;;;;;33.10;17.30;;;;;;;17.89;44.17;99487.85;68311;1282;1015843;-60
2023/04/08 10:14:15;;;;;;;27.10;12.80;;;;;;;17.74;45.93;99486.02;68308;1282;1015167;-61
2023/04/08 10:17:17;;;;;;;28.30;14.30;;;;;;;18.34;45.96;99490.24;68308;1282;1016202;-60
2023/04/08 10:20:21;;;;;;;29.50;14.80;;;;;;;18.28;43.47;99489.98;68297;1282;1015555;-61
2023/04/08 10:23:23;;;;;;;27.10;12.70;;;;;;;17.59;44.45;99487.61;68310;1282;1015706;-61
2023/04/08 10:26:26;;;;;;;27.70;11.80;;;;;;;17.65;45.82;99488.14;68328;1282;1015787;-61
2023/04/08 10:29:28;;;;;;;26.70;12.50;;;;;;;17.77;45.41;99481.34;68301;1282;1015894;-61
2023/04/08 10:32:31;;;;;;;25.80;11.20;;;;;;;18.06;45.92;99485.78;68325;1282;1015495;-61
2023/04/08 10:35:33;;;;;;;27.90;12.60;;;;;;;18.36;45.99;99487.89;68324;1282;1015579;-61
2023/04/08 10:38:35;;;;;;;28.40;13.20;;;;;;;18.50;45.42;99485.74;68313;1282;1015372;-61
2023/04/08 10:41:38;;;;;;;;;;;;;;;18.89;45.06;99488.36;68316;1282;1015918;-61
2023/04/08 10:44:40;;;;;;;43.90;20.40;;;;;;;18.99;45.31;99487.79;68320;1282;1016255;-61
2023/04/08 10:47:43;;;;;;;27.80;12.00;;;;;;;18.98;45.45;99487.55;68317;1282;1015412;-61
2023/04/08 10:50:46;;;;;;;45.60;22.50;;;;;;;18.90;44.71;99480.98;68299;1282;1016154;-61
2023/04/08 10:53:48;;;;;;;43.00;23.30;;;;;;;19.08;45.64;99480.12;68299;1282;1015937;-61
2023/04/08 10:56:51;;;;;;;25.10;11.90;;;;;;;18.93;42.59;99475.60;68317;1282;1015398;-61
2023/04/08 10:59:53;;;;;;;30.10;13.10;;;;;;;18.65;44.79;99475.58;68321;1282;1015325;-61
2023/04/08 11:02:56;;;;;;;28.90;12.60;;;;;;;18.68;43.75;99475.52;68308;1282;1015414;-61
2023/04/08 11:05:58;;;;;;;29.10;13.50;;;;;;;18.67;44.70;99473.45;68310;1282;1016013;-61
2023/04/08 11:09:01;;;;;;;26.80;11.10;;;;;;;18.91;44.22;99474.14;68327;1282;1015853;-61
2023/04/08 11:12:04;;;;;;;25.90;11.00;;;;;;;18.72;42.39;99472.88;68319;1282;1015072;-61
2023/04/08 11:15:06;;;;;;;25.50;11.00;;;;;;;18.49;41.87;99467.59;68310;1282;1015475;-61
2023/04/08 11:18:09;;;;;;;27.70;12.10;;;;;;;18.39;43.31;99473.86;68303;1282;1016038;-61
2023/04/08 11:21:12;;;;;;;29.40;12.70;;;;;;;18.63;43.64;99478.20;68311;1282;1015871;-61
2023/04/08 11:24:15;;;;;;;27.00;11.70;;;;;;;18.54;43.62;99471.35;68302;1282;1015687;-61
2023/04/08 11:27:17;;;;;;;24.20;10.30;;;;;;;18.57;43.67;99471.00;68320;1282;1015752;-61
2023/04/08 11:30:20;;;;;;;26.60;12.00;;;;;;;18.69;42.80;99466.44;68313;1282;1015311;-61
2023/04/08 11:33:23;;;;;;;26.00;11.10;;;;;;;18.80;43.32;99473.97;68328;1282;1016128;-61
2023/04/08 11:36:26;;;;;;;24.50;11.30;;;;;;;18.84;43.32;99474.40;68312;1282;1016004;-60
2023/04/08 11:39:29;;;;;;;24.70;10.70;;;;;;;18.69;43.42;99475.46;68306;1282;1015476;-61
2023/04/08 11:42:31;;;;;;;23.40;10.30;;;;;;;18.70;43.62;99471.98;68314;1282;1016185;-61
2023/04/08 11:45:34;;;;;;;25.30;11.10;;;;;;;18.74;43.57;99474.30;68312;1282;1015203;-61
2023/04/08 11:48:37;;;;;;;27.60;11.50;;;;;;;18.71;43.82;99474.94;68306;1282;1015805;-61
2023/04/08 11:51:42;;;;;;;26.30;10.50;;;;;;;18.74;43.61;99476.80;68325;1282;1016119;-61
2023/04/08 11:54:45;;;;;;;24.80;10.40;;;;;;;18.62;43.78;99476.39;68325;1282;1015631;-61
2023/04/08 11:57:47;;;;;;;;;;;;;;;18.46;43.74;99476.36;68317;1282;1015419;-61
2023/04/08 12:00:49;;;;;;;24.60;11.00;;;;;;;18.46;43.80;99476.28;68311;1282;1015376;-61
2023/04/08 12:03:52;;;;;;;26.60;11.00;;;;;;;18.35;43.65;99474.70;68309;1282;1016699;-61
2023/04/08 12:06:54;;;;;;;;;;;;;;;18.23;43.37;99472.52;68328;1282;1015295;-61
2023/04/08 12:09:56;;;;;;;27.90;13.30;;;;;;;17.96;43.57;99470.83;68296;1265;1017259;-61
2023/04/08 12:12:59;;;;;;;25.40;10.50;;;;;;;18.01;43.69;99468.15;68289;1282;1015981;-61
2023/04/08 12:16:04;;;;;;;25.30;9.70;;;;;;;18.05;44.12;99464.29;68285;1281;1016195;-62
2023/04/08 12:19:06;;;;;;;24.80;10.80;;;;;;;17.97;42.25;99459.98;68305;1281;1015346;-62
2023/04/08 12:22:08;;;;;;;24.40;10.40;;;;;;;17.95;43.99;99459.40;68303;1281;1015442;-62
2023/04/08 12:25:12;;;;;;;25.80;9.60;;;;;;;18.32;43.60;99460.51;68324;1281;1016600;-62
2023/04/08 12:28:14;;;;;;;37.80;18.00;;;;;;;18.58;42.70;99448.02;68338;1281;1015836;-62
2023/04/08 12:31:17;;;;;;;23.50;10.00;;;;;;;18.58;41.44;99446.75;68321;1281;1015699;-62
2023/04/08 12:34:19;;;;;;;24.00;9.50;;;;;;;18.71;43.33;99448.16;68317;1281;1016000;-62
2023/04/08 12:37:21;;;;;;;23.10;9.70;;;;;;;19.13;42.28;99444.45;68304;1281;1016260;-63
2023/04/08 12:40:24;;;;;;;23.40;10.00;;;;;;;19.36;42.11;99443.15;68328;1281;1015672;-62
2023/04/08 12:43:27;;;;;;;23.80;9.80;;;;;;;19.41;41.93;99437.95;68306;1281;1016115;-62
2023/04/08 12:46:29;;;;;;;24.60;10.30;;;;;;;19.23;41.90;99437.58;68309;1281;1016073;-62
2023/04/08 12:49:31;;;;;;;21.30;8.70;;;;;;;19.39;42.49;99437.73;68321;1281;1015321;-62
2023/04/08 12:52:34;;;;;;;22.20;9.00;;;;;;;19.28;41.17;99431.27;68313;1281;1015916;-63
2023/04/08 12:55:36;;;;;;;23.00;8.90;;;;;;;19.25;41.64;99433.14;68327;1281;1015298;-62
2023/04/08 12:58:39;;;;;;;22.70;9.40;;;;;;;19.08;41.67;99427.67;68314;1281;1015857;-63
2023/04/08 13:01:41;;;;;;;24.60;9.40;;;;;;;18.82;41.51;99432.33;68312;1281;1015435;-62
2023/04/08 13:04:44;;;;;;;24.50;10.40;;;;;;;18.62;42.18;99435.13;68314;1281;1015433;-63
2023/04/08 13:07:46;;;;;;;22.00;9.30;;;;;;;18.57;42.52;99433.80;68337;1281;1016009;-62
2023/04/08 13:10:49;;;;;;;23.20;9.50;;;;;;;18.41;42.65;99438.31;68311;1281;1015282;-62
2023/04/08 13:13:51;;;;;;;22.60;9.90;;;;;;;18.29;42.80;99436.80;68324;1281;1016636;-62
2023/04/08 13:16:54;;;;;;;;;;;;;;;18.14;42.91;99432.24;68324;1281;1015865;-62
2023/04/08 13:19:56;;;;;;;24.20;9.40;;;;;;;17.92;43.25;99439.86;68331;1281;1015654;-62
2023/04/08 13:22:59;;;;;;;23.30;9.50;;;;;;;17.87;43.27;99443.58;65772;1281;6360704;-62
2023/04/08 13:26:01;;;;;;;25.40;9.70;;;;;;;17.72;43.55;99446.95;68343;1281;1015336;-62
2023/04/08 13:29:04;;;;;;;25.00;11.80;;;;;;;17.41;44.11;99452.71;68311;1281;1015751;-63
2023/04/08 13:32:06;;;;;;;27.40;12.00;;;;;;;16.95;45.55;99457.41;68322;1281;1015030;-62
2023/04/08 13:35:09;;;;;;;25.20;10.50;;;;;;;16.50;46.61;99459.39;68339;1281;1015567;-63
2023/04/08 13:38:11;;;;;;;25.60;11.30;;;;;;;16.25;47.31;99452.60;68321;1281;1016132;-63
2023/04/08 13:41:14;;;;;;;;;;;;;;;16.28;47.59;99450.39;68330;1281;1015647;-63
2023/04/08 14:05:11;;;;;;;35.30;18.90;;;;;;;15.32;53.26;99442.66;131725;1315;555721;-73
2023/04/08 14:08:12;;;;;;;56.30;28.50;;;;;;;15.71;53.87;99444.29;135026;1286;81809;-74
2023/04/08 14:11:13;;;;;;;34.10;16.00;;;;;;;15.69;53.35;99442.89;135041;1287;22544;-75